createdAt,value
2019-03-16T00:00:46.815Z,9.20
2019-03-16T00:03:14.234Z,9.20
2019-03-16T00:05:41.577Z,9.20
2019-03-16T00:08:09.050Z,9.20
2019-03-16T00:10:36.565Z,9.20
2019-03-16T00:13:04.142Z,9.20
2019-03-16T00:15:33.521Z,9.20
2019-03-16T00:18:01.158Z,9.20
2019-03-16T00:20:28.505Z,9.20
2019-03-16T00:22:55.865Z,9.20
2019-03-16T00:25:23.301Z,9.30
2019-03-16T00:27:50.655Z,9.30
2019-03-16T00:30:18.030Z,9.30
2019-03-16T00:32:45.345Z,9.30
2019-03-16T00:35:12.778Z,9.30
2019-03-16T00:38:07.209Z,9.40
2019-03-16T00:40:34.615Z,9.40
2019-03-16T00:43:01.955Z,9.50
2019-03-16T00:45:29.398Z,9.50
2019-03-16T00:47:56.843Z,9.50
2019-03-16T00:50:24.299Z,9.50
2019-03-16T00:52:51.766Z,9.60
2019-03-16T00:55:19.202Z,9.60
2019-03-16T00:57:46.629Z,9.70
2019-03-16T01:00:14.126Z,9.70
2019-03-16T01:02:41.545Z,9.80
2019-03-16T01:05:09.414Z,9.80
2019-03-16T01:07:36.867Z,9.90
2019-03-16T01:10:04.737Z,10.00
2019-03-16T01:12:32.192Z,10.10
2019-03-16T01:14:59.540Z,10.20
2019-03-16T01:17:26.982Z,10.20
2019-03-16T01:19:54.435Z,10.30
2019-03-16T01:22:21.895Z,10.30
2019-03-16T01:24:49.246Z,10.30
2019-03-16T01:27:16.696Z,10.30
2019-03-16T01:29:45.523Z,10.30
2019-03-16T01:32:12.957Z,10.40
2019-03-16T01:34:40.434Z,10.30
2019-03-16T01:37:09.332Z,10.40
2019-03-16T01:39:36.806Z,10.30
2019-03-16T01:42:04.204Z,10.40
2019-03-16T01:44:31.674Z,10.40
2019-03-16T01:46:59.153Z,10.40
2019-03-16T01:49:26.622Z,10.40
2019-03-16T01:51:54.164Z,10.40
2019-03-16T01:54:21.650Z,10.40
2019-03-16T01:56:49.118Z,10.40
2019-03-16T01:59:16.616Z,10.40
2019-03-16T02:01:44.050Z,10.40
2019-03-16T02:04:11.502Z,10.40
2019-03-16T02:06:39.337Z,10.40
2019-03-16T02:09:06.996Z,10.40
2019-03-16T02:11:34.348Z,10.40
2019-03-16T02:14:01.849Z,10.40
2019-03-16T02:16:29.527Z,10.40
2019-03-16T02:18:57.002Z,10.40
2019-03-16T02:21:24.481Z,10.40
2019-03-16T02:23:51.902Z,10.40
2019-03-16T02:26:19.364Z,10.40
2019-03-16T02:28:46.794Z,10.40
2019-03-16T02:31:14.260Z,10.30
2019-03-16T02:33:41.722Z,10.40
2019-03-16T02:36:09.094Z,10.30
2019-03-16T02:38:36.508Z,10.30
2019-03-16T02:41:03.866Z,10.30
2019-03-16T02:43:31.321Z,10.30
2019-03-16T02:45:58.966Z,10.30
2019-03-16T02:48:26.341Z,10.30
2019-03-16T02:50:53.815Z,10.30
2019-03-16T02:53:21.174Z,10.30
2019-03-16T02:55:48.564Z,10.30
2019-03-16T02:58:17.090Z,10.30
2019-03-16T03:00:44.488Z,10.30
2019-03-16T03:03:28.041Z,10.30
2019-03-16T03:05:41.217Z,10.30
2019-03-16T03:08:08.680Z,10.30
2019-03-16T03:10:36.148Z,10.30
2019-03-16T03:13:03.607Z,10.30
2019-03-16T03:15:31.066Z,10.30
2019-03-16T03:17:58.578Z,10.30
2019-03-16T03:20:26.029Z,10.30
2019-03-16T03:23:00.606Z,10.30
2019-03-16T03:25:28.052Z,10.30
2019-03-16T03:27:55.501Z,10.30
2019-03-16T03:30:23.019Z,10.30
2019-03-16T03:32:50.511Z,10.30
2019-03-16T03:35:17.968Z,10.30
2019-03-16T03:37:45.431Z,10.30
2019-03-16T03:40:13.025Z,10.30
2019-03-16T03:42:40.444Z,10.30
2019-03-16T03:45:08.105Z,10.30
2019-03-16T03:47:35.483Z,10.30
2019-03-16T03:50:03.560Z,10.30
2019-03-16T03:52:30.966Z,10.30
2019-03-16T03:54:58.310Z,10.30
2019-03-16T03:57:25.820Z,10.30
2019-03-16T03:59:53.239Z,10.30
2019-03-16T04:02:20.758Z,10.30
2019-03-16T04:04:48.180Z,10.30
2019-03-16T04:07:19.810Z,10.30
2019-03-16T04:09:45.131Z,10.30
2019-03-16T04:12:12.599Z,10.30
2019-03-16T04:14:40.001Z,10.20
2019-03-16T04:17:07.500Z,10.20
2019-03-16T04:19:34.964Z,10.20
2019-03-16T04:22:02.416Z,10.20
2019-03-16T04:24:30.073Z,10.10
2019-03-16T04:26:57.503Z,10.10
2019-03-16T04:29:24.982Z,10.10
2019-03-16T04:31:52.435Z,10.10
2019-03-16T04:34:29.294Z,10.10
2019-03-16T04:36:49.012Z,10.10
2019-03-16T04:39:16.438Z,10.10
2019-03-16T04:41:43.881Z,10.10
2019-03-16T04:44:11.282Z,10.10
2019-03-16T04:46:38.769Z,10.10
2019-03-16T04:49:06.191Z,10.10
2019-03-16T04:51:33.645Z,10.10
2019-03-16T04:54:01.016Z,10.10
2019-03-16T04:56:28.446Z,10.10
2019-03-16T04:58:55.892Z,10.10
2019-03-16T05:01:23.334Z,10.10
2019-03-16T05:03:50.721Z,10.10
2019-03-16T05:06:18.215Z,10.10
2019-03-16T05:08:45.658Z,10.10
2019-03-16T05:11:13.054Z,10.10
2019-03-16T05:13:40.513Z,10.10
2019-03-16T05:16:07.931Z,10.10
2019-03-16T05:18:35.251Z,10.10
2019-03-16T05:21:02.760Z,10.20
2019-03-16T05:23:30.193Z,10.10
2019-03-16T05:25:57.821Z,10.10
2019-03-16T05:28:25.152Z,10.20
2019-03-16T05:30:52.535Z,10.20
2019-03-16T05:33:19.972Z,10.20
2019-03-16T05:35:47.338Z,10.20
2019-03-16T05:38:14.807Z,10.20
2019-03-16T05:40:42.210Z,10.20
2019-03-16T05:43:09.574Z,10.20
2019-03-16T05:45:37.023Z,10.20
2019-03-16T05:48:04.392Z,10.10
2019-03-16T05:50:31.713Z,10.20
2019-03-16T05:52:59.198Z,10.10
2019-03-16T05:55:26.682Z,10.20
2019-03-16T05:57:54.009Z,10.20
2019-03-16T06:00:21.468Z,10.20
2019-03-16T06:02:48.868Z,10.10
2019-03-16T06:05:16.279Z,10.20
2019-03-16T06:07:43.765Z,10.10
2019-03-16T06:10:11.466Z,10.10
2019-03-16T06:12:38.935Z,10.10
2019-03-16T06:15:06.538Z,10.10
2019-03-16T06:17:33.914Z,10.10
2019-03-16T06:20:01.362Z,10.10
2019-03-16T06:22:29.184Z,10.10
2019-03-16T06:24:56.954Z,10.20
2019-03-16T06:27:24.306Z,10.20
2019-03-16T06:29:52.880Z,10.10
2019-03-16T06:32:20.206Z,10.10
2019-03-16T06:34:47.535Z,10.10
2019-03-16T06:37:15.049Z,10.10
2019-03-16T06:39:43.515Z,10.10
2019-03-16T06:42:10.980Z,10.10
2019-03-16T06:44:38.916Z,10.10
2019-03-16T06:47:06.456Z,10.10
2019-03-16T06:49:33.893Z,10.10
2019-03-16T06:52:01.344Z,10.10
2019-03-16T06:54:28.698Z,10.10
2019-03-16T06:56:56.133Z,10.20
2019-03-16T06:59:23.598Z,10.20
2019-03-16T07:01:51.053Z,10.20
2019-03-16T07:04:18.524Z,10.30
2019-03-16T07:06:45.938Z,10.30
2019-03-16T07:09:13.321Z,10.40
2019-03-16T07:11:40.801Z,10.40
2019-03-16T07:14:08.307Z,10.40
2019-03-16T07:16:35.719Z,10.40
2019-03-16T07:19:03.172Z,10.50
2019-03-16T07:21:30.693Z,10.50
2019-03-16T07:23:58.159Z,10.50
2019-03-16T07:26:25.713Z,10.50
2019-03-16T07:28:53.171Z,10.50
2019-03-16T07:31:20.520Z,10.50
2019-03-16T07:33:48.285Z,10.50
2019-03-16T07:36:15.773Z,10.50
2019-03-16T07:38:43.220Z,10.50
2019-03-16T07:41:10.715Z,10.60
2019-03-16T07:43:38.149Z,10.50
2019-03-16T07:46:05.483Z,10.60
2019-03-16T07:48:32.955Z,10.60
2019-03-16T07:51:00.447Z,10.60
2019-03-16T07:53:27.879Z,10.60
2019-03-16T07:55:55.397Z,10.60
2019-03-16T07:58:24.925Z,10.60
2019-03-16T08:00:52.295Z,10.60
2019-03-16T08:03:19.779Z,10.70
2019-03-16T08:05:47.445Z,10.70
2019-03-16T08:08:14.886Z,10.70
2019-03-16T08:10:42.365Z,10.70
2019-03-16T08:13:09.845Z,10.70
2019-03-16T08:15:37.589Z,10.80
2019-03-16T08:18:08.163Z,10.80
2019-03-16T08:20:35.740Z,10.80
2019-03-16T08:23:03.102Z,10.80
2019-03-16T08:25:30.603Z,10.80
2019-03-16T08:27:58.043Z,10.90
2019-03-16T08:30:25.521Z,10.90
2019-03-16T08:32:53.277Z,10.90
2019-03-16T08:35:20.647Z,11.00
2019-03-16T08:37:48.131Z,11.00
2019-03-16T08:40:15.596Z,11.10
2019-03-16T08:42:43.119Z,11.10
2019-03-16T08:45:11.050Z,11.10
2019-03-16T08:47:38.827Z,11.10
2019-03-16T08:50:06.743Z,11.10
2019-03-16T08:52:34.178Z,11.10
2019-03-16T08:55:01.656Z,11.10
2019-03-16T08:57:29.158Z,11.10
2019-03-16T08:59:56.606Z,11.00
2019-03-16T09:02:24.068Z,11.00
2019-03-16T09:04:51.529Z,11.00
2019-03-16T09:07:18.990Z,11.00
2019-03-16T09:09:48.903Z,11.00
2019-03-16T09:12:16.379Z,11.10
2019-03-16T09:14:43.789Z,11.10
2019-03-16T09:17:11.279Z,11.10
2019-03-16T09:19:38.793Z,11.20
2019-03-16T09:22:08.077Z,11.20
2019-03-16T09:24:35.508Z,11.20
2019-03-16T09:27:02.993Z,11.30
2019-03-16T09:29:30.445Z,11.20
2019-03-16T09:31:57.890Z,11.20
2019-03-16T09:34:25.259Z,11.30
2019-03-16T09:36:52.620Z,11.20
2019-03-16T09:39:20.101Z,11.30
2019-03-16T09:41:47.570Z,11.20
2019-03-16T09:44:15.065Z,11.20
2019-03-16T09:46:42.556Z,11.30
2019-03-16T09:49:10.030Z,11.30
2019-03-16T09:51:37.485Z,11.40
2019-03-16T09:54:05.132Z,11.50
2019-03-16T09:56:32.603Z,11.60
2019-03-16T09:59:00.105Z,11.70
2019-03-16T10:01:27.570Z,11.80
2019-03-16T10:03:55.140Z,11.80
2019-03-16T10:06:22.638Z,11.90
2019-03-16T10:08:50.022Z,11.90
2019-03-16T10:11:17.540Z,11.90
2019-03-16T10:13:44.965Z,11.90
2019-03-16T10:16:12.500Z,12.00
2019-03-16T10:18:40.001Z,11.90
2019-03-16T10:21:07.498Z,11.80
2019-03-16T10:23:34.898Z,11.80
2019-03-16T10:26:02.279Z,11.70
2019-03-16T10:28:29.891Z,11.60
2019-03-16T10:30:57.330Z,11.60
2019-03-16T10:33:24.722Z,11.50
2019-03-16T10:35:52.191Z,11.50
2019-03-16T10:38:19.781Z,11.50
2019-03-16T10:40:47.153Z,11.40
2019-03-16T10:43:14.631Z,11.40
2019-03-16T10:45:42.003Z,11.40
2019-03-16T10:48:12.516Z,11.40
2019-03-16T10:50:39.979Z,11.40
2019-03-16T10:53:07.661Z,11.40
2019-03-16T10:55:35.238Z,11.40
2019-03-16T10:58:04.122Z,11.40
2019-03-16T11:03:07.864Z,11.40
2019-03-16T11:05:35.220Z,11.40
2019-03-16T11:08:03.457Z,11.40
2019-03-16T11:10:30.855Z,11.40
2019-03-16T11:12:58.298Z,11.40
2019-03-16T11:15:25.774Z,11.40
2019-03-16T11:17:53.291Z,11.40
2019-03-16T11:20:20.717Z,11.50
2019-03-16T11:22:49.862Z,11.50
2019-03-16T11:25:17.372Z,11.50
2019-03-16T11:27:44.757Z,11.50
2019-03-16T11:30:12.171Z,11.60
2019-03-16T11:32:41.474Z,11.70
2019-03-16T11:35:09.275Z,11.70
2019-03-16T11:37:36.801Z,11.80
2019-03-16T11:40:05.995Z,11.80
2019-03-16T11:42:33.525Z,11.80
2019-03-16T11:45:00.864Z,11.80
2019-03-16T11:47:28.363Z,11.80
2019-03-16T11:49:55.783Z,11.80
2019-03-16T11:52:23.211Z,11.80
2019-03-16T11:54:50.662Z,11.80
2019-03-16T11:57:18.281Z,11.90
2019-03-16T11:59:45.948Z,11.80
2019-03-16T12:02:13.364Z,11.80
2019-03-16T12:04:40.841Z,11.80
2019-03-16T12:07:08.281Z,11.80
2019-03-16T12:09:40.427Z,11.80
2019-03-16T12:12:08.915Z,11.80
2019-03-16T12:14:36.311Z,11.80
2019-03-16T12:17:03.787Z,11.80
2019-03-16T12:19:31.241Z,11.80
2019-03-16T12:22:03.206Z,11.80
2019-03-16T12:24:32.849Z,11.70
2019-03-16T12:27:00.459Z,11.80
2019-03-16T12:29:33.861Z,11.80
2019-03-16T12:31:57.251Z,11.80
2019-03-16T12:34:24.639Z,11.80
2019-03-16T12:36:52.055Z,11.80
2019-03-16T12:45:13.533Z,11.90
2019-03-16T12:47:40.955Z,11.80
2019-03-16T12:50:08.529Z,11.80
2019-03-16T12:52:35.981Z,11.80
2019-03-16T12:55:03.757Z,11.80
2019-03-16T12:57:31.223Z,11.80
2019-03-16T12:59:58.699Z,11.90
2019-03-16T13:02:26.108Z,11.90
2019-03-16T13:04:53.456Z,11.80
2019-03-16T13:07:20.810Z,11.90
2019-03-16T13:09:48.176Z,11.90
2019-03-16T13:12:17.865Z,12.00
2019-03-16T13:14:47.118Z,12.00
2019-03-16T13:17:14.552Z,12.00
2019-03-16T13:19:44.256Z,12.00
2019-03-16T13:22:11.729Z,11.90
2019-03-16T13:24:39.159Z,11.90
2019-03-16T13:27:06.654Z,11.90
2019-03-16T13:29:34.046Z,11.90
2019-03-16T13:32:01.496Z,12.00
2019-03-16T13:34:29.006Z,12.10
2019-03-16T13:36:56.524Z,12.10
2019-03-16T13:39:23.972Z,12.10
2019-03-16T13:41:51.404Z,12.10
2019-03-16T13:44:18.899Z,12.00
2019-03-16T13:46:46.376Z,12.10
2019-03-16T13:49:14.094Z,12.10
2019-03-16T13:51:41.585Z,12.10
2019-03-16T13:54:09.050Z,12.10
2019-03-16T13:56:36.523Z,12.20
2019-03-16T13:59:04.029Z,12.10
2019-03-16T14:01:32.678Z,12.10
2019-03-16T14:04:02.977Z,12.10
2019-03-16T14:06:29.450Z,12.10
2019-03-16T14:08:57.031Z,12.10
2019-03-16T14:11:24.487Z,12.10
2019-03-16T14:13:51.970Z,12.20
2019-03-16T14:16:20.110Z,12.20
2019-03-16T14:18:47.578Z,12.20
2019-03-16T14:21:15.070Z,12.20
2019-03-16T14:23:42.522Z,12.30
2019-03-16T14:26:11.063Z,12.30
2019-03-16T14:28:38.514Z,12.30
2019-03-16T14:31:05.976Z,12.30
2019-03-16T14:33:33.546Z,12.30
2019-03-16T14:36:01.373Z,12.30
2019-03-16T14:38:28.867Z,12.30
2019-03-16T14:40:58.316Z,12.40
2019-03-16T14:43:25.831Z,12.50
2019-03-16T14:45:53.878Z,12.50
2019-03-16T14:48:21.471Z,12.60
2019-03-16T14:50:49.844Z,12.50
2019-03-16T14:53:17.820Z,12.50
2019-03-16T14:55:45.318Z,12.50
2019-03-16T14:58:13.158Z,12.50
2019-03-16T15:00:40.516Z,12.50
2019-03-16T15:03:07.980Z,12.50
2019-03-16T15:05:35.509Z,12.60
2019-03-16T15:08:02.989Z,12.60
2019-03-16T15:10:32.214Z,12.80
2019-03-16T15:12:59.637Z,12.80
2019-03-16T15:15:27.027Z,12.80
2019-03-16T15:17:54.475Z,12.80
2019-03-16T15:20:21.950Z,12.80
2019-03-16T15:22:49.902Z,12.80
2019-03-16T15:25:17.368Z,12.80
2019-03-16T15:27:44.841Z,12.70
2019-03-16T15:30:13.153Z,12.70
2019-03-16T15:32:40.523Z,12.80
2019-03-16T15:35:08.247Z,12.80
2019-03-16T15:37:35.738Z,12.80
2019-03-16T15:40:03.577Z,12.90
2019-03-16T15:42:31.053Z,13.00
2019-03-16T15:44:58.517Z,13.10
2019-03-16T15:47:25.963Z,13.10
2019-03-16T15:49:54.531Z,13.10
2019-03-16T15:52:21.960Z,13.10
2019-03-16T15:54:49.434Z,13.00
2019-03-16T15:57:16.857Z,13.00
2019-03-16T15:59:44.367Z,13.00
2019-03-16T16:02:11.837Z,13.00
2019-03-16T16:04:39.347Z,13.00
2019-03-16T16:07:06.794Z,13.20
2019-03-16T16:09:34.262Z,13.30
2019-03-16T16:12:01.711Z,13.30
2019-03-16T16:14:29.197Z,13.30
2019-03-16T16:16:57.057Z,13.30
2019-03-16T16:19:24.410Z,13.30
2019-03-16T16:21:51.925Z,13.30
2019-03-16T16:24:22.278Z,13.30
2019-03-16T16:26:49.735Z,13.30
2019-03-16T16:29:17.366Z,13.20
2019-03-16T16:31:45.896Z,13.30
2019-03-16T16:34:13.321Z,13.30
2019-03-16T16:36:40.829Z,13.30
2019-03-16T16:39:08.294Z,13.20
2019-03-16T16:41:35.744Z,13.20
2019-03-16T16:44:03.286Z,13.10
2019-03-16T16:46:30.823Z,13.00
2019-03-16T16:48:59.142Z,13.00
2019-03-16T16:51:26.688Z,12.90
2019-03-16T16:53:54.177Z,12.90
2019-03-16T16:56:22.084Z,12.80
2019-03-16T16:58:49.675Z,12.80
2019-03-16T17:01:28.739Z,12.80
2019-03-16T17:03:46.561Z,12.70
2019-03-16T17:06:14.036Z,12.70
2019-03-16T17:08:41.523Z,12.70
2019-03-16T17:11:09.003Z,12.60
2019-03-16T17:13:36.415Z,12.60
2019-03-16T17:16:04.021Z,12.60
2019-03-16T17:18:31.480Z,12.60
2019-03-16T17:20:58.971Z,12.60
2019-03-16T17:23:26.379Z,12.50
2019-03-16T17:25:53.844Z,12.50
2019-03-16T17:28:21.763Z,12.50
2019-03-16T17:30:49.308Z,12.50
2019-03-16T17:33:16.758Z,12.50
2019-03-16T17:35:44.222Z,12.50
2019-03-16T17:38:11.614Z,12.50
2019-03-16T17:40:39.074Z,12.50
2019-03-16T17:43:06.574Z,12.40
2019-03-16T17:45:34.258Z,12.40
2019-03-16T17:48:01.911Z,12.40
2019-03-16T17:50:29.406Z,12.40
2019-03-16T17:52:57.318Z,12.40
2019-03-16T17:55:24.968Z,12.40
2019-03-16T18:03:18.182Z,12.40
2019-03-16T18:05:46.712Z,12.40
2019-03-16T18:08:18.359Z,12.40
2019-03-16T18:10:46.463Z,12.40
2019-03-16T18:13:16.370Z,12.40
2019-03-16T18:15:43.838Z,12.40
2019-03-16T18:18:12.422Z,12.40
2019-03-16T18:20:40.472Z,12.40
2019-03-16T18:23:08.062Z,12.40
2019-03-16T18:25:37.860Z,12.40
2019-03-16T18:28:07.619Z,12.40
2019-03-16T18:30:37.144Z,12.40
2019-03-16T18:33:08.887Z,12.40
2019-03-16T18:35:39.318Z,12.40
2019-03-16T18:38:10.707Z,12.50
2019-03-16T18:40:40.609Z,12.50
2019-03-16T18:43:08.465Z,12.50
2019-03-16T18:48:13.352Z,12.50
2019-03-16T18:50:43.043Z,12.50
2019-03-16T18:53:11.541Z,12.50
2019-03-16T18:55:42.314Z,12.50
2019-03-16T18:58:12.668Z,12.50
2019-03-16T19:00:48.582Z,12.50
2019-03-16T19:03:19.112Z,12.50
2019-03-16T19:05:49.491Z,12.50
2019-03-16T19:08:17.811Z,12.50
2019-03-16T19:10:48.358Z,12.50
2019-03-16T19:13:19.594Z,12.50
2019-03-16T19:15:48.647Z,12.50
2019-03-16T19:18:19.578Z,12.50
2019-03-16T19:20:46.314Z,12.40
2019-03-16T19:23:19.839Z,12.50
2019-03-16T19:25:47.490Z,12.40
2019-03-16T19:28:20.827Z,12.40
2019-03-16T19:30:48.678Z,12.40
2019-03-16T19:33:17.617Z,12.40
2019-03-16T19:35:49.050Z,12.40
2019-03-16T19:38:20.989Z,12.40
2019-03-16T19:40:48.983Z,12.40
2019-03-16T19:43:16.988Z,12.40
2019-03-16T19:45:44.988Z,12.40
2019-03-16T19:48:13.021Z,12.40
2019-03-16T19:50:42.126Z,12.40
2019-03-16T19:53:10.034Z,12.30
2019-03-16T19:55:47.529Z,12.30
2019-03-16T19:58:14.983Z,12.30
2019-03-16T20:00:43.189Z,12.40
2019-03-16T20:03:10.583Z,12.30
2019-03-16T20:05:38.032Z,12.30
2019-03-16T20:08:05.491Z,12.30
2019-03-16T20:10:32.981Z,12.40
2019-03-16T20:13:00.542Z,12.30
2019-03-16T20:15:28.203Z,12.30
2019-03-16T20:17:55.691Z,12.30
2019-03-16T20:20:23.224Z,12.30
2019-03-16T20:22:50.659Z,12.30
2019-03-16T20:25:18.053Z,12.30
2019-03-16T20:27:45.529Z,12.30
2019-03-16T20:30:12.995Z,12.30
2019-03-16T20:32:40.479Z,12.30
2019-03-16T20:35:08.268Z,12.30
2019-03-16T20:37:35.662Z,12.30
2019-03-16T20:40:03.645Z,12.30
2019-03-16T20:42:31.145Z,12.30
2019-03-16T20:44:59.004Z,12.30
2019-03-16T20:47:26.594Z,12.30
2019-03-16T20:49:54.325Z,12.30
2019-03-16T20:52:21.779Z,12.20
2019-03-16T20:54:51.181Z,12.20
2019-03-16T20:57:18.611Z,12.20
2019-03-16T20:59:46.010Z,12.20
2019-03-16T21:02:13.520Z,12.20
2019-03-16T21:04:41.189Z,12.20
2019-03-16T21:07:08.668Z,12.20
2019-03-16T21:09:36.613Z,12.20
2019-03-16T21:12:10.350Z,12.20
2019-03-16T21:14:37.807Z,12.20
2019-03-16T21:17:05.276Z,12.20
2019-03-16T21:19:36.534Z,12.20
2019-03-16T21:22:05.816Z,12.20
2019-03-16T21:24:33.296Z,12.10
2019-03-16T21:27:03.012Z,12.10
2019-03-16T21:29:30.631Z,12.10
2019-03-16T21:31:58.135Z,12.10
2019-03-16T21:34:28.827Z,12.10
2019-03-16T21:36:59.762Z,12.10
2019-03-16T21:39:29.789Z,12.00
2019-03-16T21:41:58.569Z,12.00
2019-03-16T21:44:25.978Z,12.00
2019-03-16T21:46:53.475Z,12.00
2019-03-16T21:49:20.994Z,12.00
2019-03-16T21:51:48.448Z,11.90
2019-03-16T21:54:15.926Z,11.90
2019-03-16T21:56:43.384Z,11.90
2019-03-16T21:59:10.842Z,11.90
2019-03-16T22:01:38.424Z,11.80
2019-03-16T22:04:05.946Z,11.80
2019-03-16T22:06:33.300Z,11.80
2019-03-16T22:09:00.837Z,11.80
2019-03-16T22:11:28.260Z,11.80
2019-03-16T22:13:56.706Z,11.80
2019-03-16T22:16:24.158Z,11.70
2019-03-16T22:18:51.598Z,11.70
2019-03-16T22:21:19.076Z,11.70
2019-03-16T22:23:46.433Z,11.70
2019-03-16T22:26:13.796Z,11.70
2019-03-16T22:28:41.152Z,11.70
2019-03-16T22:31:08.640Z,11.60
2019-03-16T22:33:38.083Z,11.60
2019-03-16T22:36:05.450Z,11.60
2019-03-16T22:38:32.909Z,11.50
2019-03-16T22:41:00.369Z,11.50
2019-03-16T22:43:27.736Z,11.50
2019-03-16T22:45:55.547Z,11.50
2019-03-16T22:48:22.894Z,11.40
2019-03-16T22:50:50.274Z,11.40
2019-03-16T22:53:17.760Z,11.40
2019-03-16T22:55:45.192Z,11.40
2019-03-16T22:58:14.434Z,11.30
2019-03-16T23:00:44.671Z,11.30
2019-03-16T23:03:12.313Z,11.30
2019-03-16T23:05:40.025Z,11.20
2019-03-16T23:08:07.453Z,11.20
2019-03-16T23:10:34.909Z,11.20
2019-03-16T23:13:02.355Z,11.10
2019-03-16T23:15:29.783Z,11.10
2019-03-16T23:17:57.430Z,11.10
2019-03-16T23:20:24.874Z,11.00
2019-03-16T23:22:52.414Z,11.00
2019-03-16T23:25:19.886Z,11.00
2019-03-16T23:27:47.336Z,11.00
2019-03-16T23:30:14.901Z,11.00
2019-03-16T23:32:42.402Z,11.00
2019-03-16T23:35:09.878Z,11.00
2019-03-16T23:37:37.282Z,11.00
2019-03-16T23:40:04.933Z,11.00
2019-03-16T23:42:32.401Z,11.00
2019-03-16T23:44:59.863Z,11.00
2019-03-16T23:47:27.410Z,11.00
2019-03-16T23:49:54.763Z,11.00
2019-03-16T23:52:22.219Z,11.00
2019-03-16T23:54:49.701Z,11.00
2019-03-16T23:57:17.163Z,10.90
2019-03-16T23:59:44.600Z,10.90
